Time;durP1;ratioP1;P1;durP2;ratioP2;P2;SDS_P1;SDS_P2;PMS_P1;PMS_P2;Temp;Humidity;BMP_temperature;BMP_pressure;BME280_temperature;BME280_humidity;BME280_pressure;Samples;Min_cycle;Max_cycle;Signal;HPM_P1;HPM_P2
2023/05/31 00:01:06;;;;;;;11.90;5.97;;;15.20;80.00;;;18.01;54.89;102656.56;5055265;28;20276;-65
2023/05/31 00:03:33;;;;;;;8.73;5.13;;;15.20;80.20;;;17.99;54.71;102658.56;5050224;28;20693;-64
2023/05/31 00:06:00;;;;;;;9.93;5.97;;;15.20;80.10;;;17.98;55.07;102656.91;5045119;28;20302;-65
2023/05/31 00:08:27;;;;;;;7.30;5.03;;;15.20;80.30;;;17.99;55.21;102658.56;5055009;28;20205;-66
2023/05/31 00:10:54;;;;;;;6.63;5.53;;;15.20;80.30;;;17.97;54.83;102649.94;5039987;28;20236;-67
2023/05/31 00:13:22;;;;;;;7.80;5.83;;;15.20;80.30;;;17.96;55.00;102653.59;5034777;28;20256;-64
2023/05/31 00:15:49;;;;;;;11.83;6.30;;;15.20;80.30;;;17.94;54.79;102652.94;5051450;28;20301;-65
2023/05/31 00:18:16;;;;;;;7.37;5.67;;;15.20;80.30;;;17.89;54.97;102652.63;5054866;28;20605;-66
2023/05/31 00:20:44;;;;;;;12.73;6.63;;;15.10;80.60;;;17.85;55.12;102657.47;5054733;28;20197;-64
2023/05/31 00:23:11;;;;;;;8.67;6.13;;;15.10;80.70;;;17.80;55.14;102659.00;5036953;28;20264;-67
2023/05/31 00:25:38;;;;;;;9.70;6.00;;;15.00;80.60;;;17.78;54.97;102650.38;5034725;28;20207;-64
2023/05/31 00:28:05;;;;;;;7.73;5.60;;;15.00;80.70;;;17.73;55.23;102647.38;5035889;28;20546;-65
2023/05/31 00:30:33;;;;;;;7.90;5.00;;;15.00;81.00;;;17.71;55.29;102642.22;5034563;28;20217;-66
2023/05/31 00:33:01;;;;;;;9.47;5.83;;;14.90;81.00;;;17.70;55.46;102653.06;5033246;28;20280;-65
2023/05/31 00:35:28;;;;;;;13.73;6.73;;;14.90;81.20;;;17.67;55.52;102648.06;5034443;28;20206;-68
2023/05/31 00:37:55;;;;;;;8.50;5.10;;;14.90;81.30;;;17.63;55.62;102642.28;5034624;28;20733;-66
2023/05/31 00:40:23;;;;;;;9.67;5.67;;;14.80;81.50;;;17.63;55.96;102647.59;5034362;28;20206;-66
2023/05/31 00:42:50;;;;;;;8.67;6.23;;;14.80;81.70;;;17.63;56.20;102639.63;5035519;28;20190;-67
2023/05/31 00:45:17;;;;;;;10.00;5.47;;;14.80;81.70;;;17.63;55.65;102634.28;5034366;28;20210;-64
2023/05/31 00:47:45;;;;;;;8.93;6.00;;;14.80;81.60;;;17.63;55.87;102644.09;5034811;28;20570;-65
2023/05/31 00:50:13;;;;;;;9.30;5.57;;;14.80;81.60;;;17.59;56.01;102647.09;5034431;28;20213;-64
2023/05/31 00:52:42;;;;;;;10.27;5.80;;;14.80;81.70;;;17.59;55.89;102647.09;5038598;28;20535;-65
2023/05/31 00:55:09;;;;;;;7.70;5.83;;;14.80;81.70;;;17.57;55.94;102654.44;5053937;28;20292;-66
2023/05/31 00:57:37;;;;;;;9.13;5.87;;;14.80;81.70;;;17.56;56.00;102658.13;5054332;28;20222;-66
2023/05/31 01:00:08;;;;;;;11.93;6.43;;;14.70;82.10;;;17.55;56.12;102648.47;5052309;28;20206;-66
2023/05/31 01:02:37;;;;;;;8.10;5.63;;;14.70;82.10;;;17.56;56.49;102658.13;5048862;28;20205;-65
2023/05/31 01:05:07;;;;;;;7.87;5.33;;;14.80;82.20;;;17.59;56.68;102652.44;5053722;28;20226;-67
2023/05/31 01:07:35;;;;;;;6.97;5.37;;;14.80;82.70;;;17.64;56.64;102659.09;5053838;28;20276;-65
2023/05/31 01:10:04;;;;;;;12.67;5.77;;;14.80;82.50;;;17.70;56.20;102658.38;5054056;28;20268;-65
2023/05/31 01:12:44;;;;;;;10.83;6.43;;;14.90;82.30;;;17.71;56.13;102649.41;5053861;28;20182;-67
2023/05/31 01:15:18;;;;;;;8.47;5.37;;;14.90;82.10;;;17.75;56.16;102656.03;5053112;28;20283;-65
2023/05/31 01:17:59;;;;;;;7.93;5.70;;;14.90;81.80;;;17.75;55.94;102648.03;5047985;28;20205;-66
2023/05/31 01:20:34;;;;;;;9.13;6.43;;;14.90;82.50;;;17.75;55.94;102645.38;5049251;28;20208;-65
2023/05/31 01:23:17;;;;;;;9.50;5.30;;;14.90;81.50;;;17.70;55.75;102643.25;5053640;28;20209;-70
2023/05/31 01:26:17;;;;;;;8.83;5.70;;;14.90;81.70;;;17.70;56.34;102645.06;5053956;28;20209;-65
2023/05/31 01:28:49;;;;;;;9.50;5.83;;;15.00;82.20;;;17.76;56.29;102636.41;5053877;28;20209;-65
2023/05/31 01:31:21;;;;;;;10.80;6.10;;;15.00;81.70;;;17.79;56.50;102633.34;5053725;28;20217;-65
2023/05/31 01:33:50;;;;;;;9.00;6.07;;;15.00;81.60;;;17.87;56.14;102641.31;5041874;28;20206;-66
2023/05/31 01:36:17;;;;;;;7.37;5.97;;;15.20;81.60;;;17.93;55.87;102638.78;5034145;28;20291;-65
2023/05/31 01:38:44;;;;;;;8.63;5.33;;;15.20;81.10;;;17.99;55.60;102647.91;5033569;28;20655;-67
2023/05/31 01:41:13;;;;;;;8.67;5.67;;;15.20;80.70;;;18.03;55.39;102650.03;5033437;28;20217;-66
2023/05/31 01:43:44;;;;;;;12.00;5.73;;;15.30;80.40;;;18.04;55.17;102649.03;5033135;28;20253;-65
2023/05/31 01:46:17;;;;;;;7.57;5.60;;;15.30;80.50;;;18.06;55.24;102643.53;5033495;28;20309;-65
2023/05/31 01:48:46;;;;;;;9.60;5.40;;;15.30;80.30;;;18.10;55.11;102637.66;5035989;28;20183;-65
2023/05/31 01:51:15;;;;;;;9.93;5.90;;;15.40;80.20;;;18.13;54.79;102642.66;5050613;28;20225;-65
2023/05/31 01:53:42;;;;;;;8.00;5.53;;;15.40;79.80;;;18.12;54.95;102646.31;5053306;28;20256;-65
2023/05/31 01:56:11;;;;;;;7.83;5.80;;;15.40;80.00;;;18.11;54.76;102651.84;5054270;28;20210;-64
2023/05/31 01:58:41;;;;;;;9.47;5.50;;;15.30;79.60;;;18.07;54.54;102645.19;5055887;28;20284;-65
2023/05/31 02:01:12;;;;;;;7.23;5.33;;;15.30;79.50;;;17.99;54.57;102639.91;5055984;28;20174;-65
2023/05/31 02:03:40;;;;;;;11.53;6.93;;;15.20;79.60;;;17.93;54.62;102648.59;5053620;28;20665;-66
2023/05/31 02:06:07;;;;;;;10.97;5.87;;;15.20;79.80;;;17.86;54.94;102640.47;5053110;28;20218;-66
2023/05/31 02:08:34;;;;;;;13.33;6.03;;;15.10;79.90;;;17.78;55.03;102637.84;5051188;28;20200;-65
2023/05/31 02:11:01;;;;;;;7.00;5.80;;;15.00;80.20;;;17.74;55.51;102633.06;5052965;28;20725;-66
2023/05/31 02:13:31;;;;;;;8.90;5.30;;;15.00;81.00;;;17.71;55.65;102644.88;5052817;28;20217;-66
2023/05/31 02:15:58;;;;;;;7.77;5.40;;;14.90;81.10;;;17.73;55.68;102639.41;5050837;28;20232;-65
2023/05/31 02:18:26;;;;;;;8.67;5.80;;;14.90;81.30;;;17.74;55.80;102638.38;5053176;28;20194;-65
2023/05/31 02:20:54;;;;;;;8.53;5.67;;;14.90;81.20;;;17.76;55.74;102642.53;5053079;28;20202;-66
2023/05/31 02:23:21;;;;;;;7.67;5.43;;;15.00;81.30;;;17.81;55.73;102655.31;5052139;28;20186;-65
2023/05/31 02:25:50;;;;;;;11.13;5.77;;;15.10;80.90;;;17.85;55.34;102646.00;5031920;28;20257;-66
2023/05/31 02:28:18;;;;;;;7.77;5.77;;;15.10;80.70;;;17.89;55.37;102647.28;5032787;28;20197;-66
2023/05/31 02:30:54;;;;;;;9.37;6.50;;;15.10;80.50;;;17.91;55.20;102639.94;5032925;28;20588;-66
2023/05/31 02:33:21;;;;;;;7.33;4.90;;;15.20;80.30;;;17.94;55.02;102647.59;5032766;28;20664;-65
2023/05/31 02:35:50;;;;;;;9.57;5.60;;;15.20;80.20;;;17.97;55.20;102652.59;5033083;28;20210;-66
2023/05/31 02:38:18;;;;;;;8.23;5.57;;;15.20;80.00;;;18.00;54.90;102650.38;5033282;28;20254;-65
2023/05/31 02:40:45;;;;;;;11.40;6.07;;;15.30;80.00;;;18.04;54.83;102650.88;5034226;28;20199;-65
2023/05/31 02:43:12;;;;;;;8.07;5.70;;;15.30;79.60;;;18.02;54.56;102652.88;5032819;28;20230;-65
2023/05/31 02:45:39;;;;;;;11.20;7.03;;;15.30;79.60;;;17.98;54.45;102651.56;5041244;28;20218;-65
2023/05/31 02:48:07;;;;;;;11.77;6.67;;;15.20;79.40;;;17.89;54.12;102655.28;5052789;28;20190;-65
2023/05/31 02:50:34;;;;;;;8.30;6.80;;;15.10;79.50;;;17.80;54.30;102649.19;5052696;28;20190;-66
2023/05/31 02:53:05;;;;;;;9.30;6.73;;;15.00;79.50;;;17.71;54.54;102647.53;5052537;28;20190;-64
2023/05/31 02:55:32;;;;;;;12.90;7.00;;;14.90;79.70;;;17.61;54.60;102646.13;5054092;28;20296;-66
2023/05/31 02:58:00;;;;;;;8.97;6.43;;;14.80;80.20;;;17.53;55.48;102650.47;5048895;28;20251;-64
2023/05/31 03:00:27;;;;;;;11.37;7.37;;;14.80;81.10;;;17.51;55.82;102644.50;5051916;28;20224;-64
2023/05/31 03:02:54;;;;;;;11.10;7.63;;;14.70;81.50;;;17.53;55.86;102641.66;5039089;28;20607;-66
2023/05/31 03:05:23;;;;;;;10.10;8.23;;;14.70;81.80;;;17.55;55.82;102651.13;5056024;28;20222;-65
2023/05/31 03:07:50;;;;;;;9.83;6.77;;;14.70;81.60;;;17.53;55.82;102646.97;5056129;28;20190;-66
2023/05/31 03:10:18;;;;;;;10.97;6.43;;;14.70;82.10;;;17.56;56.06;102647.47;5056231;28;20218;-65
2023/05/31 03:12:45;;;;;;;10.20;6.87;;;14.70;82.10;;;17.61;55.83;102646.13;5045349;28;20191;-65
2023/05/31 03:15:12;;;;;;;9.80;6.53;;;14.70;81.90;;;17.64;56.09;102648.44;5047711;28;20300;-65
2023/05/31 03:17:39;;;;;;;9.43;6.37;;;14.70;82.00;;;17.68;56.07;102652.41;5056023;28;20192;-65
2023/05/31 03:20:08;;;;;;;9.10;6.80;;;14.80;82.20;;;17.72;55.90;102651.03;5055834;28;20202;-65
2023/05/31 03:22:36;;;;;;;12.57;6.43;;;14.80;82.20;;;17.76;55.97;102647.84;5056016;28;20190;-65
2023/05/31 03:25:05;;;;;;;7.80;6.73;;;14.90;81.90;;;17.84;55.80;102641.66;5054740;28;20214;-65
2023/05/31 03:27:33;;;;;;;7.37;5.77;;;15.00;81.70;;;17.89;55.43;102647.28;5055735;28;20276;-64
2023/05/31 03:30:01;;;;;;;8.10;6.00;;;15.10;81.40;;;17.90;55.48;102644.44;5056182;28;20221;-64
2023/05/31 03:32:28;;;;;;;8.10;6.27;;;15.10;81.00;;;17.92;55.25;102642.47;5055159;28;20678;-64
2023/05/31 03:34:55;;;;;;;5.90;5.10;;;15.10;80.80;;;17.96;55.13;102637.59;5055359;28;20217;-65
2023/05/31 03:37:22;;;;;;;5.50;4.80;;;15.20;80.70;;;17.96;55.04;102637.59;5056063;28;20189;-66
2023/05/31 03:39:50;;;;;;;7.20;5.80;;;15.20;80.70;;;17.99;55.08;102642.56;5051434;28;20210;-64
2023/05/31 03:42:17;;;;;;;5.60;5.00;;;15.20;80.60;;;17.99;55.31;102632.75;5046643;28;20692;-66
2023/05/31 03:44:46;;;;;;;6.63;4.87;;;15.20;80.40;;;18.00;54.88;102630.91;5054538;28;20657;-64
2023/05/31 03:47:13;;;;;;;4.40;4.00;;;15.20;80.20;;;18.00;54.88;102630.91;5054823;28;20222;-65
2023/05/31 03:49:40;;;;;;;4.67;3.97;;;15.20;80.00;;;17.99;54.84;102631.91;5055098;28;20208;-66
2023/05/31 03:52:12;;;;;;;5.33;4.37;;;15.20;80.10;;;18.01;55.06;102635.22;5055040;28;20193;-64
2023/05/31 03:54:39;;;;;;;5.73;4.60;;;15.20;80.10;;;18.05;54.78;102632.03;5046922;28;20240;-66
2023/05/31 03:57:06;;;;;;;5.20;4.70;;;15.30;80.00;;;18.04;54.28;102629.56;5035311;28;20201;-64
2023/05/31 03:59:34;;;;;;;6.00;4.13;;;15.20;79.50;;;17.98;54.10;102635.56;5035218;28;20190;-64
2023/05/31 04:02:03;;;;;;;4.07;3.67;;;15.10;79.30;;;17.89;54.13;102636.63;5047824;28;20279;-66
2023/05/31 04:04:30;;;;;;;5.90;3.63;;;15.10;79.60;;;17.77;54.25;102638.03;5054558;28;20233;-65
2023/05/31 04:06:58;;;;;;;4.77;4.10;;;14.90;79.80;;;17.67;54.39;102643.56;5054433;28;20198;-64
2023/05/31 04:09:25;;;;;;;5.87;3.57;;;14.90;80.20;;;17.58;54.72;102641.97;5054158;28;20194;-64
2023/05/31 04:11:56;;;;;;;4.97;4.27;;;14.70;80.40;;;17.51;55.08;102638.31;5054703;28;20659;-65
2023/05/31 04:14:23;;;;;;;3.23;2.93;;;14.70;81.20;;;17.45;55.40;102639.81;5053943;28;20259;-65
2023/05/31 04:16:50;;;;;;;3.30;3.00;;;14.60;81.70;;;17.42;55.39;102640.16;5055214;28;20198;-65
2023/05/31 04:19:18;;;;;;;6.10;3.97;;;14.50;81.70;;;17.39;56.04;102640.53;5054403;28;20219;-65
2023/05/31 04:21:45;;;;;;;36.03;26.50;;;14.50;82.50;;;17.43;56.24;102636.50;5054676;28;20225;-66
2023/05/31 04:24:12;;;;;;;5.03;4.13;;;14.50;83.00;;;17.51;56.46;102638.31;5039599;28;20214;-65
2023/05/31 04:26:39;;;;;;;3.73;3.33;;;14.60;82.90;;;17.61;56.39;102643.44;5034431;28;20270;-66
2023/05/31 04:29:06;;;;;;;5.43;4.73;;;14.70;83.00;;;17.69;56.26;102646.91;5034095;28;20205;-67
2023/05/31 04:31:36;;;;;;;4.80;3.57;;;14.70;82.60;;;17.74;55.82;102643.69;5034468;28;20186;-66
2023/05/31 04:34:19;;;;;;;4.00;3.60;;;14.80;82.00;;;17.76;55.67;102641.72;5033674;28;20242;-66
2023/05/31 04:36:48;;;;;;;3.40;3.10;;;14.80;82.10;;;17.80;55.80;102637.69;5034125;28;20273;-65
2023/05/31 04:39:16;;;;;;;3.67;3.07;;;14.80;82.40;;;17.87;55.65;102641.31;5051098;28;20757;-66
2023/05/31 04:41:44;;;;;;;3.37;3.07;;;14.90;82.20;;;17.95;55.59;102641.25;5054187;28;20198;-66
2023/05/31 04:44:11;;;;;;;4.80;4.00;;;15.00;82.30;;;18.06;55.59;102643.53;5053372;28;20201;-66
2023/05/31 04:46:40;;;;;;;6.50;4.67;;;15.10;82.10;;;18.13;55.31;102644.47;5053781;28;20571;-65
2023/05/31 04:49:08;;;;;;;4.37;3.80;;;15.10;81.80;;;18.20;55.03;102648.09;5053790;28;20232;-67
2023/05/31 04:51:36;;;;;;;4.33;3.63;;;15.20;81.20;;;18.22;54.75;102640.75;5050225;28;20203;-66
2023/05/31 04:54:03;;;;;;;4.80;4.07;;;15.20;81.10;;;18.22;54.62;102644.25;5053113;28;20287;-65
2023/05/31 04:56:30;;;;;;;4.17;3.77;;;15.30;81.00;;;18.24;54.87;102641.41;5053724;28;20611;-65
2023/05/31 04:58:57;;;;;;;6.83;4.90;;;15.20;81.00;;;18.27;54.81;102641.03;5053623;28;20204;-66
2023/05/31 05:01:24;;;;;;;10.07;5.37;;;15.30;81.20;;;18.27;54.56;102635.72;5052260;28;20292;-67
2023/05/31 05:03:52;;;;;;;5.53;4.23;;;15.30;80.80;;;18.25;54.49;102645.72;5053042;28;20198;-67
2023/05/31 05:06:20;;;;;;;6.03;4.50;;;15.30;80.80;;;18.24;54.75;102641.41;5051444;28;20204;-66
2023/05/31 05:08:48;;;;;;;6.67;4.60;;;15.20;81.00;;;18.23;54.51;102640.56;5053870;28;20293;-66
2023/05/31 05:11:15;;;;;;;6.50;5.10;;;15.30;81.00;;;18.18;54.76;102632.25;5052524;28;20558;-66
2023/05/31 05:13:43;;;;;;;6.27;5.13;;;15.20;80.90;;;18.16;54.59;102646.81;5051746;28;20204;-65
2023/05/31 05:16:10;;;;;;;5.73;5.13;;;15.20;81.00;;;18.14;54.52;102646.13;5052084;28;20630;-65
2023/05/31 05:18:37;;;;;;;4.83;4.20;;;15.10;81.00;;;18.12;54.96;102654.31;5052557;28;20257;-65
2023/05/31 05:21:04;;;;;;;5.07;4.57;;;15.10;81.60;;;18.17;55.25;102653.78;5043279;28;20198;-66
2023/05/31 05:23:33;;;;;;;5.43;4.93;;;15.10;82.00;;;18.23;55.16;102655.75;5052718;28;20221;-65
2023/05/31 05:26:02;;;;;;;7.97;5.23;;;15.20;81.70;;;18.25;55.23;102659.06;5043758;28;20543;-65
2023/05/31 05:28:29;;;;;;;6.30;4.90;;;15.20;82.00;;;18.28;55.10;102656.03;5033267;28;20229;-66
2023/05/31 05:30:56;;;;;;;5.67;4.50;;;15.20;81.60;;;18.28;55.06;102650.69;5033394;28;20213;-66
2023/05/31 05:33:26;;;;;;;4.77;4.30;;;15.20;81.50;;;18.28;54.79;102658.69;5032667;28;20229;-65
2023/05/31 05:35:53;;;;;;;5.00;4.50;;;15.30;81.30;;;18.26;54.79;102655.38;5032648;28;20297;-65
2023/05/31 05:38:20;;;;;;;6.03;4.33;;;15.30;81.10;;;18.22;55.01;102654.06;5033193;28;20273;-66
2023/05/31 05:40:47;;;;;;;5.20;4.67;;;15.30;81.30;;;18.21;55.04;102657.75;5033307;28;20190;-64
2023/05/31 05:43:15;;;;;;;5.67;4.80;;;15.30;81.30;;;18.18;55.08;102653.59;5032465;28;20292;-64
2023/05/31 05:45:42;;;;;;;8.87;7.97;;;15.30;81.40;;;18.17;55.20;102651.94;5032538;28;20230;-65
2023/05/31 05:48:09;;;;;;;10.07;9.07;;;15.20;81.60;;;18.20;55.53;102648.09;5032957;28;20591;-66
2023/05/31 05:50:36;;;;;;;6.00;5.33;;;15.30;82.20;;;18.23;55.35;102651.22;5048879;28;20189;-65
2023/05/31 05:53:03;;;;;;;5.83;5.23;;;15.20;81.70;;;18.24;55.05;102646.72;5052676;28;20273;-66
2023/05/31 05:55:30;;;;;;;6.17;4.70;;;15.30;81.80;;;18.23;55.25;102647.75;5051304;28;20259;-66
2023/05/31 05:57:57;;;;;;;6.97;5.60;;;15.30;81.80;;;18.22;55.24;102654.06;5052499;28;20277;-66
2023/05/31 06:00:26;;;;;;;7.47;5.43;;;15.30;82.10;;;18.24;55.37;102650.22;5052564;28;20612;-66
2023/05/31 06:02:53;;;;;;;5.60;5.10;;;15.30;82.40;;;18.28;55.41;102650.69;5052530;28;20193;-64
2023/05/31 06:05:25;;;;;;;6.67;5.03;;;15.30;82.40;;;18.32;55.36;102645.84;5033379;28;20590;-65
2023/05/31 06:07:53;;;;;;;8.00;5.10;;;15.30;82.50;;;18.42;55.56;102639.28;5033121;28;20202;-66
2023/05/31 06:10:20;;;;;;;5.87;5.33;;;15.40;82.70;;;18.55;55.44;102642.19;5032778;28;20361;-65
2023/05/31 06:12:47;;;;;;;6.37;5.40;;;15.50;82.60;;;18.70;55.12;102647.56;5033081;28;20198;-67
2023/05/31 06:15:15;;;;;;;5.27;4.43;;;15.60;82.20;;;18.80;54.86;102648.94;5044500;28;20205;-66
2023/05/31 06:17:43;;;;;;;7.93;4.87;;;15.70;81.70;;;18.94;54.61;102650.78;5052984;28;20281;-65
2023/05/31 06:20:10;;;;;;;5.17;4.40;;;15.80;81.60;;;19.05;54.45;102644.19;5051509;28;20193;-65
2023/05/31 06:22:38;;;;;;;4.87;4.23;;;16.00;81.20;;;19.12;54.37;102645.13;5040513;28;20551;-65
2023/05/31 06:25:06;;;;;;;5.90;4.73;;;16.10;80.70;;;19.19;53.77;102647.88;5034289;28;20230;-66
2023/05/31 06:27:33;;;;;;;5.50;4.93;;;16.10;80.50;;;19.28;53.70;102647.59;5034890;28;20301;-66
2023/05/31 06:30:00;;;;;;;5.47;4.50;;;16.20;80.30;;;19.37;53.41;102651.06;5037543;28;20255;-67
2023/05/31 06:32:28;;;;;;;5.30;3.90;;;16.30;79.80;;;19.47;53.18;102640.88;5058478;28;20215;-64
2023/05/31 06:34:56;;;;;;;5.77;4.23;;;16.40;79.50;;;19.57;53.11;102646.78;5058601;28;20218;-66
2023/05/31 06:37:23;;;;;;;6.00;4.50;;;16.50;79.00;;;19.65;52.29;102644.00;5059515;28;20205;-68
2023/05/31 06:39:50;;;;;;;5.53;4.57;;;16.50;78.60;;;19.74;52.22;102647.41;5061136;28;20616;-65
2023/05/31 06:42:18;;;;;;;6.63;3.83;;;16.60;78.50;;;19.83;52.15;102648.94;5060604;28;20202;-66
2023/05/31 06:44:45;;;;;;;5.77;3.53;;;16.70;78.20;;;19.93;52.18;102641.44;5061369;28;20319;-67
2023/05/31 06:47:23;;;;;;;7.03;4.57;;;16.80;77.90;;;20.03;51.40;102647.31;5049935;28;20627;-65
2023/05/31 06:49:50;;;;;;;5.30;3.77;;;16.90;77.70;;;20.15;51.35;102652.00;5041294;28;20202;-65
2023/05/31 06:52:19;;;;;;;5.50;3.63;;;17.00;77.70;;;20.28;51.26;102656.66;5040953;28;20194;-67
2023/05/31 06:54:45;;;;;;;5.60;4.03;;;17.10;77.10;;;20.36;50.97;102643.16;5035129;28;20230;-66
2023/05/31 06:57:12;;;;;;;6.47;4.17;;;17.20;76.70;;;20.49;50.84;102647.81;5035990;28;20194;-64
2023/05/31 06:59:39;;;;;;;6.80;4.57;;;17.30;76.40;;;20.61;50.46;102646.25;5036057;28;20224;-66
2023/05/31 07:02:07;;;;;;;5.53;4.00;;;17.40;76.10;;;20.70;49.76;102634.38;5049256;28;20259;-65
2023/05/31 07:04:34;;;;;;;6.33;3.93;;;17.50;75.60;;;20.80;49.77;102629.53;5053620;28;20260;-65
2023/05/31 07:07:02;;;;;;;9.50;4.73;;;17.60;75.50;;;20.89;49.50;102628.34;5054590;28;20285;-65
2023/05/31 07:09:30;;;;;;;4.20;3.63;;;17.70;75.20;;;21.01;49.59;102621.44;5055559;28;20556;-66
2023/05/31 07:11:57;;;;;;;4.67;3.43;;;17.80;74.80;;;21.13;49.09;102630.59;5054807;28;20193;-64
2023/05/31 07:14:24;;;;;;;5.47;3.90;;;17.90;74.80;;;21.25;48.79;102623.63;5054515;28;20411;-64
2023/05/31 07:16:51;;;;;;;3.50;3.13;;;18.00;74.30;;;21.38;48.48;102626.38;5054096;28;20204;-67
2023/05/31 07:19:18;;;;;;;4.50;3.40;;;18.20;73.60;;;21.50;48.47;102626.63;5044179;28;20601;-66
2023/05/31 07:21:45;;;;;;;3.33;2.97;;;18.30;73.40;;;21.64;48.30;102622.16;5054686;28;20186;-66
2023/05/31 07:24:12;;;;;;;4.93;3.63;;;18.40;73.40;;;21.72;48.01;102616.63;5054333;28;20269;-66
2023/05/31 07:26:40;;;;;;;6.67;4.47;;;18.60;73.60;;;21.81;47.20;102618.09;5054665;28;20281;-66
2023/05/31 07:29:07;;;;;;;7.20;4.47;;;18.70;72.60;;;21.92;47.37;102615.66;5054767;28;20224;-66
2023/05/31 07:31:34;;;;;;;7.67;3.83;;;18.80;72.20;;;22.04;47.03;102613.22;5055016;28;20281;-66
2023/05/31 07:34:01;;;;;;;7.57;6.33;;;18.90;71.80;;;22.18;46.70;102609.50;5054079;28;20198;-64
2023/05/31 07:36:28;;;;;;;4.20;3.80;;;19.10;71.30;;;22.34;46.78;102609.13;5054398;28;20300;-64
2023/05/31 07:38:55;;;;;;;9.30;4.00;;;19.20;71.30;;;22.49;46.27;102612.41;5054206;28;20276;-65
2023/05/31 07:41:22;;;;;;;4.47;3.63;;;19.30;70.40;;;22.61;46.34;102615.31;5053860;28;20221;-65
2023/05/31 07:43:52;;;;;;;8.83;4.40;;;19.40;69.50;;;22.72;45.44;102609.34;5051829;28;20233;-66
2023/05/31 07:46:19;;;;;;;7.83;6.20;;;19.50;68.60;;;22.81;45.30;102610.78;5034467;28;20368;-66
2023/05/31 07:48:46;;;;;;;7.93;5.57;;;19.70;69.00;;;22.93;45.14;102603.72;5034409;28;20616;-66
2023/05/31 07:51:13;;;;;;;6.70;5.10;;;19.80;69.10;;;23.11;45.11;102611.09;5034231;28;20191;-66
2023/05/31 07:53:40;;;;;;;6.13;3.60;;;19.90;69.00;;;23.26;44.91;102603.63;5032812;28;20305;-65
2023/05/31 07:56:07;;;;;;;6.43;4.00;;;20.00;68.40;;;23.41;44.68;102606.91;5033805;28;20225;-65
2023/05/31 07:58:34;;;;;;;6.80;4.30;;;20.10;68.40;;;23.53;44.16;102600.63;5039893;28;20218;-65
2023/05/31 08:01:03;;;;;;;4.87;3.63;;;20.30;67.70;;;23.68;43.70;102600.34;5054061;28;20668;-65
2023/05/31 08:03:31;;;;;;;7.13;4.80;;;20.40;67.20;;;23.79;43.47;102605.06;5053612;28;20201;-65
2023/05/31 08:05:58;;;;;;;6.83;3.90;;;20.50;66.40;;;23.93;42.74;102600.41;5053768;28;20702;-66
2023/05/31 08:08:25;;;;;;;4.47;3.60;;;20.60;66.20;;;24.31;42.12;102603.06;5053113;28;20324;-65
2023/05/31 08:10:52;;;;;;;5.37;3.60;;;20.70;65.70;;;25.05;41.16;102600.31;5054289;28;20217;-65
2023/05/31 08:13:19;;;;;;;6.23;3.07;;;20.90;65.20;;;26.02;40.35;102594.66;5051001;28;20547;-66
2023/05/31 08:15:46;;;;;;;6.40;3.70;;;21.30;65.20;;;27.21;37.42;102602.34;5052873;28;20644;-66
2023/05/31 08:18:15;;;;;;;5.40;3.57;;;21.80;63.20;;;28.32;35.76;102601.72;5054110;28;20240;-65
2023/05/31 08:20:42;;;;;;;6.53;3.53;;;22.40;61.40;;;29.29;33.89;102595.53;5052756;28;20249;-65
2023/05/31 08:23:16;;;;;;;4.00;3.00;;;23.10;59.60;;;30.40;33.26;102591.22;5052972;28;20189;-67
2023/05/31 08:25:43;;;;;;;5.47;3.13;;;23.80;59.20;;;31.15;30.85;102590.00;5054030;28;20583;-66
2023/05/31 08:28:10;;;;;;;4.90;3.27;;;24.60;56.60;;;31.76;29.52;102591.00;5040127;28;20266;-66
2023/05/31 08:30:37;;;;;;;3.67;2.73;;;25.20;54.20;;;32.46;29.22;102588.28;5033732;28;20218;-67
2023/05/31 08:33:04;;;;;;;4.27;3.57;;;25.80;52.70;;;33.46;27.85;102594.47;5033342;28;20304;-66
2023/05/31 08:35:33;;;;;;;6.47;5.47;;;26.50;52.70;;;34.45;27.15;102583.03;5033404;28;20225;-65
2023/05/31 08:38:00;;;;;;;15.13;11.40;;;27.20;50.70;;;35.22;26.35;102586.53;5032739;28;20226;-67
2023/05/31 08:40:27;;;;;;;6.57;4.33;;;27.80;49.20;;;35.69;24.21;102591.88;5032977;28;20285;-67
2023/05/31 08:43:00;;;;;;;7.47;3.87;;;28.40;45.10;;;35.95;23.70;102584.88;5047940;28;20256;-65
2023/05/31 08:45:30;;;;;;;4.40;3.20;;;28.90;43.10;;;36.49;23.46;102575.19;5047633;28;20276;-66
2023/05/31 08:48:08;;;;;;;4.53;2.63;;;29.30;42.30;;;36.93;21.84;102572.63;5043424;28;20190;-65
2023/05/31 08:50:39;;;;;;;5.20;3.07;;;29.80;39.90;;;37.14;21.57;102573.00;5030717;28;20662;-65
2023/05/31 08:53:07;;;;;;;3.78;2.75;;;30.20;39.20;;;37.14;21.69;102578.50;5030312;28;20962;-65
2023/05/31 08:55:36;;;;;;;8.00;4.68;;;30.50;37.80;;;36.97;22.08;102572.81;5032394;28;20214;-65
2023/05/31 08:58:05;;;;;;;5.57;3.50;;;30.70;37.10;;;37.05;21.72;102567.44;5037706;28;20245;-64
2023/05/31 09:00:35;;;;;;;6.87;3.47;;;30.80;36.90;;;37.49;21.10;102574.16;5052568;28;20205;-65
2023/05/31 09:03:05;;;;;;;6.30;4.15;;;30.90;36.50;;;37.79;20.77;102568.72;5050648;28;20601;-64
2023/05/31 09:05:33;;;;;;;6.88;3.72;;;31.00;35.60;;;38.20;20.92;102563.00;5041856;28;20225;-66
2023/05/31 09:08:02;;;;;;;8.25;3.90;;;31.30;36.30;;;38.86;20.32;102561.97;5045021;28;20263;-65
2023/05/31 09:10:29;;;;;;;5.82;3.65;;;31.50;35.90;;;39.27;19.04;102558.81;5051627;28;20244;-68
2023/05/31 09:12:57;;;;;;;4.78;4.38;;;31.80;33.40;;;39.53;19.70;102562.38;5051570;28;20208;-65
2023/05/31 09:15:25;;;;;;;6.20;3.60;;;32.10;34.50;;;39.92;18.64;102559.38;5051446;28;20304;-65
2023/05/31 09:17:52;;;;;;;7.93;3.45;;;32.40;32.50;;;39.87;17.75;102559.56;5051739;28;20189;-65
2023/05/31 09:20:19;;;;;;;5.38;4.20;;;32.60;31.00;;;39.83;17.81;102561.38;5051394;28;20206;-64
2023/05/31 09:22:48;;;;;;;4.32;2.97;;;32.80;30.60;;;39.96;17.39;102554.03;5039459;28;20569;-65
2023/05/31 09:25:17;;;;;;;5.40;3.30;;;32.80;29.90;;;40.31;17.27;102546.44;5051165;28;20298;-64
2023/05/31 09:27:44;;;;;;;4.55;2.97;;;33.00;29.90;;;40.60;16.90;102545.69;5043874;28;20224;-64
2023/05/31 09:30:14;;;;;;;6.47;4.78;;;33.10;29.60;;;40.95;17.17;102545.16;5051698;28;20761;-65
2023/05/31 09:32:41;;;;;;;6.35;5.28;;;33.30;29.70;;;41.01;16.54;102552.06;5051512;28;20728;-67
2023/05/31 09:35:13;;;;;;;4.05;3.00;;;33.50;29.30;;;41.07;16.71;102549.94;5050084;28;20213;-65
2023/05/31 09:37:45;;;;;;;6.32;3.80;;;33.60;28.30;;;41.17;17.03;102550.34;5050737;28;20278;-66
2023/05/31 09:40:14;;;;;;;6.10;3.42;;;33.90;28.60;;;41.24;16.00;102551.75;5051607;28;20244;-66
2023/05/31 09:42:50;;;;;;;6.40;3.15;;;33.90;27.60;;;41.48;15.42;102549.13;5051833;28;20220;-66
2023/05/31 09:45:18;;;;;;;6.80;3.40;;;34.10;26.60;;;41.45;15.45;102552.56;5045896;28;20234;-65
2023/05/31 09:47:47;;;;;;;5.85;3.20;;;34.10;26.40;;;41.57;15.39;102549.84;5031961;28;20538;-66
2023/05/31 09:50:17;;;;;;;4.05;2.63;;;34.10;26.40;;;41.45;15.18;102547.84;5031796;28;20191;-67
2023/05/31 09:52:47;;;;;;;4.97;3.50;;;34.20;26.10;;;41.80;14.78;102540.81;5031476;28;20674;-66
2023/05/31 09:55:16;;;;;;;5.88;3.17;;;34.40;26.10;;;42.47;14.87;102537.56;5038686;28;20300;-69
2023/05/31 09:57:45;;;;;;;5.53;3.40;;;34.50;26.60;;;43.03;14.37;102532.19;5052016;28;20194;-65
2023/05/31 10:00:17;;;;;;;8.00;3.67;;;34.80;26.10;;;43.30;14.45;102525.88;5051890;28;20623;-66
2023/05/31 10:02:46;;;;;;;6.40;3.40;;;35.00;26.00;;;43.51;14.22;102518.13;5051680;28;20186;-66
2023/05/31 10:05:16;;;;;;;3.17;2.80;;;35.20;25.80;;;43.54;13.67;102522.97;5033273;28;20229;-66
2023/05/31 10:07:46;;;;;;;6.35;3.65;;;35.40;25.60;;;43.77;14.00;102520.41;5054659;28;20214;-65
2023/05/31 10:10:13;;;;;;;4.05;3.53;;;35.60;25.20;;;43.98;14.02;102517.41;5054763;28;20247;-66
2023/05/31 10:12:49;;;;;;;6.22;3.10;;;35.70;25.30;;;44.39;12.93;102512.06;5053753;28;20670;-66
2023/05/31 10:15:22;;;;;;;6.90;3.47;;;35.90;24.70;;;44.65;13.27;102514.28;5054198;28;20221;-66
2023/05/31 10:17:58;;;;;;;5.18;3.75;;;36.00;24.60;;;44.55;13.30;102505.72;5056019;28;20261;-65